Time;durP1;ratioP1;P1;durP2;ratioP2;P2;SDS_P1;SDS_P2;PMS_P1;PMS_P2;Temp;Humidity;BMP_temperature;BMP_pressure;BME280_temperature;BME280_humidity;BME280_pressure;Samples;Min_cycle;Max_cycle;Signal;HPM_P1;HPM_P2
2022/07/23 00:00:00;;;;;;;3.72;3.53;;;;;;;;;;5058287;28;20212;-65
2022/07/23 00:02:27;;;;;;;4.35;4.05;;;;;;;;;;5057063;28;20785;-65
2022/07/23 00:04:54;;;;;;;3.88;3.58;;;;;;;;;;5055589;28;20210;-65
2022/07/23 00:07:21;;;;;;;4.10;3.80;;;;;;;;;;5057230;28;20207;-63
2022/07/23 00:09:48;;;;;;;3.80;3.53;;;;;;;;;;5062300;28;20206;-64
2022/07/23 00:12:15;;;;;;;4.20;3.97;;;;;;;;;;5064487;28;20727;-64
2022/07/23 00:14:44;;;;;;;4.18;3.95;;;;;;;;;;5057647;28;20337;-64
2022/07/23 00:17:11;;;;;;;3.75;3.55;;;;;;;;;;5063892;28;20215;-64
2022/07/23 00:19:39;;;;;;;3.60;3.50;;;;;;;;;;5064391;28;20219;-64
2022/07/23 00:22:06;;;;;;;4.20;4.00;;;;;;;;;;5056654;28;20199;-64
2022/07/23 00:24:33;;;;;;;4.25;3.83;;;;;;;;;;5045710;28;20211;-64
2022/07/23 00:27:03;;;;;;;4.57;4.28;;;;;;;;;;5057044;28;20646;-64
2022/07/23 00:29:30;;;;;;;4.93;4.50;;;;;;;;;;5062332;28;20265;-64
2022/07/23 00:31:59;;;;;;;4.32;3.78;;;;;;;;;;5053267;28;20231;-64
2022/07/23 00:34:26;;;;;;;4.20;4.00;;;;;;;;;;5067567;28;20206;-64
2022/07/23 00:36:54;;;;;;;4.28;4.07;;;;;;;;;;5062495;28;20211;-64
2022/07/23 00:39:21;;;;;;;4.57;4.20;;;;;;;;;;5048674;28;20208;-64
2022/07/23 00:41:49;;;;;;;3.95;3.75;;;;;;;;;;5053443;28;20199;-64
2022/07/23 00:44:16;;;;;;;4.18;3.83;;;;;;;;;;5068101;28;20206;-64
2022/07/23 00:46:46;;;;;;;4.75;4.00;;;;;;;;;;5064766;28;20251;-64
2022/07/23 00:49:15;;;;;;;4.03;3.83;;;;;;;;;;5048496;28;20238;-64
2022/07/23 00:51:42;;;;;;;5.03;4.25;;;;;;;;;;5050326;28;20223;-64
2022/07/23 00:54:09;;;;;;;4.13;3.92;;;;;;;;;;5048266;28;20208;-64
2022/07/23 00:56:36;;;;;;;4.35;3.97;;;;;;;;;;5049286;28;20227;-64
2022/07/23 00:59:03;;;;;;;3.92;3.70;;;;;;;;;;5056191;28;20214;-64
2022/07/23 01:01:30;;;;;;;4.13;3.80;;;;;;;;;;5065003;28;20211;-64
2022/07/23 01:03:57;;;;;;;4.25;4.05;;;;;;;;;;5065207;28;20198;-64
2022/07/23 01:06:26;;;;;;;4.22;3.85;;;;;;;;;;5066564;28;20219;-64
2022/07/23 01:08:54;;;;;;;4.25;3.92;;;;;;;;;;5048760;28;20204;-64
2022/07/23 01:11:21;;;;;;;4.20;3.90;;;;;;;;;;5066559;28;20256;-64
2022/07/23 01:13:49;;;;;;;3.92;3.67;;;;;;;;;;5050607;28;20203;-64
2022/07/23 01:16:16;;;;;;;5.22;3.75;;;;;;;;;;5064937;28;20209;-64
2022/07/23 01:18:43;;;;;;;4.13;3.90;;;;;;;;;;5066579;28;20769;-63
2022/07/23 01:21:12;;;;;;;3.63;3.50;;;;;;;;;;5068114;28;20269;-63
2022/07/23 01:23:41;;;;;;;4.18;3.95;;;;;;;;;;5066827;28;20199;-63
2022/07/23 01:26:08;;;;;;;3.85;3.65;;;;;;;;;;5065441;28;20252;-63
2022/07/23 01:28:35;;;;;;;4.57;4.28;;;;;;;;;;5065256;28;20272;-64
2022/07/23 01:31:02;;;;;;;4.50;4.20;;;;;;;;;;5066570;28;20677;-64
2022/07/23 01:33:29;;;;;;;4.55;4.30;;;;;;;;;;5062019;28;20222;-64
2022/07/23 01:35:56;;;;;;;4.70;4.40;;;;;;;;;;5067534;28;20290;-64
2022/07/23 01:38:23;;;;;;;4.38;4.18;;;;;;;;;;5065484;28;20289;-64
2022/07/23 01:40:52;;;;;;;5.05;4.72;;;;;;;;;;5064618;28;20206;-64
2022/07/23 01:43:19;;;;;;;4.40;4.10;;;;;;;;;;5065087;28;20226;-63
2022/07/23 01:45:46;;;;;;;5.00;4.60;;;;;;;;;;5067618;28;20215;-63
2022/07/23 01:48:13;;;;;;;5.38;4.88;;;;;;;;;;5065418;28;20322;-64
2022/07/23 01:50:40;;;;;;;4.60;4.25;;;;;;;;;;5067609;28;20218;-63
2022/07/23 01:53:08;;;;;;;4.68;4.38;;;;;;;;;;5066245;28;20257;-64
2022/07/23 01:55:35;;;;;;;5.57;4.78;;;;;;;;;;5065531;28;20261;-63
2022/07/23 01:58:03;;;;;;;5.03;4.53;;;;;;;;;;5063635;28;20198;-64
2022/07/23 02:00:30;;;;;;;4.85;4.45;;;;;;;;;;5063015;28;20673;-63
2022/07/23 02:02:58;;;;;;;6.65;4.97;;;;;;;;;;5066191;28;20203;-64
2022/07/23 02:05:25;;;;;;;5.05;4.75;;;;;;;;;;5066983;28;20550;-64
2022/07/23 02:07:54;;;;;;;4.72;4.32;;;;;;;;;;5063807;28;20574;-63
2022/07/23 02:10:21;;;;;;;5.05;4.72;;;;;;;;;;5067659;28;20202;-63
2022/07/23 02:12:48;;;;;;;5.32;4.82;;;;;;;;;;5063339;28;20300;-63
2022/07/23 02:15:17;;;;;;;4.63;4.32;;;;;;;;;;5067562;28;20196;-63
2022/07/23 02:17:47;;;;;;;4.57;4.38;;;;;;;;;;5068046;28;20205;-63
2022/07/23 02:20:14;;;;;;;5.35;4.95;;;;;;;;;;5068327;28;20298;-64
2022/07/23 02:22:41;;;;;;;9.40;5.15;;;;;;;;;;5070976;28;20202;-64
2022/07/23 02:25:09;;;;;;;4.93;4.55;;;;;;;;;;5070302;28;20210;-63
2022/07/23 02:27:36;;;;;;;5.43;4.93;;;;;;;;;;5070675;28;20680;-64
2022/07/23 02:30:03;;;;;;;4.82;4.43;;;;;;;;;;5069821;28;20209;-64
2022/07/23 02:32:32;;;;;;;4.97;4.57;;;;;;;;;;5070249;28;20223;-64
2022/07/23 02:34:59;;;;;;;4.43;4.22;;;;;;;;;;5068296;28;20670;-64
2022/07/23 02:37:26;;;;;;;4.97;4.45;;;;;;;;;;5069253;28;20211;-64
2022/07/23 02:39:53;;;;;;;5.20;4.90;;;;;;;;;;5070327;28;20199;-64
2022/07/23 02:42:20;;;;;;;5.30;4.90;;;;;;;;;;5069620;28;20199;-64
2022/07/23 02:44:47;;;;;;;5.03;4.55;;;;;;;;;;5069778;28;20194;-64
2022/07/23 02:47:14;;;;;;;5.25;4.78;;;;;;;;;;5069097;28;20715;-63
2022/07/23 02:49:42;;;;;;;5.13;4.80;;;;;;;;;;5069963;28;20199;-63
2022/07/23 02:52:10;;;;;;;5.20;4.80;;;;;;;;;;5068627;28;20782;-62
2022/07/23 02:54:37;;;;;;;5.78;5.25;;;;;;;;;;5067950;28;21005;-63
2022/07/23 02:57:04;;;;;;;4.82;4.50;;;;;;;;;;5065747;28;20235;-63
2022/07/23 02:59:31;;;;;;;4.78;4.47;;;;;;;;;;5065283;28;20207;-63
2022/07/23 03:01:58;;;;;;;6.32;4.93;;;;;;;;;;5068205;28;20215;-63
2022/07/23 03:04:25;;;;;;;4.82;4.45;;;;;;;;;;5063479;28;20208;-62
2022/07/23 03:06:54;;;;;;;4.57;4.28;;;;;;;;;;5066959;28;20207;-63
2022/07/23 03:09:21;;;;;;;4.85;4.55;;;;;;;;;;5068110;28;20210;-62
2022/07/23 03:11:48;;;;;;;5.10;4.80;;;;;;;;;;5066799;28;20256;-62
2022/07/23 03:14:16;;;;;;;4.75;4.45;;;;;;;;;;5068744;28;20227;-62
2022/07/23 03:16:43;;;;;;;5.05;4.65;;;;;;;;;;5066979;28;20687;-63
2022/07/23 03:19:10;;;;;;;4.97;4.63;;;;;;;;;;5068665;28;20218;-62
2022/07/23 03:21:40;;;;;;;5.32;4.82;;;;;;;;;;5068923;28;20206;-63
2022/07/23 03:24:09;;;;;;;5.22;4.82;;;;;;;;;;5067063;28;20199;-63
2022/07/23 03:26:36;;;;;;;5.28;4.88;;;;;;;;;;5066830;28;20866;-62
2022/07/23 03:29:03;;;;;;;5.47;5.03;;;;;;;;;;5067701;28;20199;-63
2022/07/23 03:31:31;;;;;;;4.93;4.53;;;;;;;;;;5068078;28;20207;-63
2022/07/23 03:33:58;;;;;;;4.97;4.63;;;;;;;;;;5066845;28;20223;-63
2022/07/23 03:36:25;;;;;;;5.40;4.50;;;;;;;;;;5069049;28;20295;-63
2022/07/23 03:38:52;;;;;;;5.20;4.85;;;;;;;;;;5069460;28;20577;-63
2022/07/23 03:41:21;;;;;;;5.63;4.97;;;;;;;;;;5066031;28;20203;-63
2022/07/23 03:43:48;;;;;;;4.97;4.68;;;;;;;;;;5062104;28;20253;-63
2022/07/23 03:46:15;;;;;;;5.45;4.93;;;;;;;;;;5059198;28;20207;-63
2022/07/23 03:48:42;;;;;;;5.15;4.75;;;;;;;;;;5050446;28;20552;-63
2022/07/23 03:51:09;;;;;;;5.75;5.25;;;;;;;;;;5064258;28;20207;-63
2022/07/23 03:53:38;;;;;;;6.47;5.30;;;;;;;;;;5050284;28;20243;-62
2022/07/23 03:56:05;;;;;;;6.03;5.28;;;;;;;;;;5068943;28;20716;-62
2022/07/23 03:58:33;;;;;;;5.70;5.25;;;;;;;;;;5051394;28;20203;-62
2022/07/23 04:01:01;;;;;;;5.78;5.28;;;;;;;;;;5054679;28;20568;-63
2022/07/23 04:03:28;;;;;;;5.80;4.60;;;;;;;;;;5053269;28;20200;-63
2022/07/23 04:05:55;;;;;;;4.95;4.65;;;;;;;;;;5059945;28;20207;-64
2022/07/23 04:08:22;;;;;;;5.63;5.22;;;;;;;;;;5052992;28;20223;-63
2022/07/23 04:10:49;;;;;;;5.65;5.00;;;;;;;;;;5069689;28;20578;-63
2022/07/23 04:13:16;;;;;;;5.00;4.68;;;;;;;;;;5069087;28;20223;-63
2022/07/23 04:15:44;;;;;;;5.93;5.43;;;;;;;;;;5069873;28;20777;-63
2022/07/23 04:18:11;;;;;;;5.43;4.82;;;;;;;;;;5057227;28;20207;-63
2022/07/23 04:20:39;;;;;;;10.48;4.47;;;;;;;;;;5053993;28;20749;-63
2022/07/23 04:23:06;;;;;;;4.97;4.55;;;;;;;;;;5058844;28;20204;-63
2022/07/23 04:25:33;;;;;;;5.32;4.90;;;;;;;;;;5067106;28;20213;-63
2022/07/23 04:28:00;;;;;;;5.90;5.40;;;;;;;;;;5069869;28;20563;-63
2022/07/23 04:30:27;;;;;;;4.85;4.45;;;;;;;;;;5055014;28;20207;-63
2022/07/23 04:32:55;;;;;;;4.72;4.43;;;;;;;;;;5063610;28;20223;-63
2022/07/23 04:35:22;;;;;;;4.57;4.32;;;;;;;;;;5069114;28;20208;-63
2022/07/23 04:37:49;;;;;;;6.30;4.95;;;;;;;;;;5069482;28;20313;-62
2022/07/23 04:40:16;;;;;;;4.82;4.53;;;;;;;;;;5058191;28;20207;-62
2022/07/23 04:42:43;;;;;;;9.10;4.55;;;;;;;;;;5062144;28;20218;-62
2022/07/23 04:45:11;;;;;;;5.03;4.30;;;;;;;;;;5065785;28;20210;-65
2022/07/23 04:47:38;;;;;;;6.13;4.40;;;;;;;;;;5062841;28;20256;-63
2022/07/23 04:50:07;;;;;;;5.03;4.70;;;;;;;;;;5069513;28;20210;-63
2022/07/23 04:52:34;;;;;;;5.70;4.43;;;;;;;;;;5065010;28;20223;-65
2022/07/23 04:55:01;;;;;;;4.45;4.22;;;;;;;;;;5068612;28;20231;-67
2022/07/23 04:57:31;;;;;;;5.43;5.03;;;;;;;;;;5049855;28;20775;-67
2022/07/23 04:59:58;;;;;;;4.65;4.40;;;;;;;;;;5048911;28;20298;-65
2022/07/23 05:02:25;;;;;;;4.90;4.50;;;;;;;;;;5052025;28;20210;-65
2022/07/23 05:04:52;;;;;;;4.97;4.60;;;;;;;;;;5069342;28;20211;-65
2022/07/23 05:07:21;;;;;;;4.97;4.47;;;;;;;;;;5065119;28;20214;-66
2022/07/23 05:09:48;;;;;;;5.95;5.00;;;;;;;;;;5068849;28;20214;-66
2022/07/23 05:12:15;;;;;;;4.45;4.15;;;;;;;;;;5069086;28;20276;-67
2022/07/23 05:14:42;;;;;;;4.72;4.43;;;;;;;;;;5050139;28;20262;-66
2022/07/23 05:17:09;;;;;;;5.10;4.70;;;;;;;;;;5058655;28;20203;-66
2022/07/23 05:19:37;;;;;;;4.63;4.32;;;;;;;;;;5062103;28;20203;-66
2022/07/23 05:22:08;;;;;;;4.68;4.35;;;;;;;;;;5058787;28;20203;-66
2022/07/23 05:24:36;;;;;;;4.80;4.35;;;;;;;;;;5060304;28;20205;-66
2022/07/23 05:27:04;;;;;;;5.00;4.60;;;;;;;;;;5069268;28;20387;-66
2022/07/23 05:29:31;;;;;;;4.90;4.60;;;;;;;;;;5067312;28;20206;-67
2022/07/23 05:31:58;;;;;;;4.90;4.45;;;;;;;;;;5067066;28;20247;-67
2022/07/23 05:34:25;;;;;;;5.47;4.43;;;;;;;;;;5063430;28;20230;-66
2022/07/23 05:36:52;;;;;;;5.28;4.68;;;;;;;;;;5063160;28;20214;-66
2022/07/23 05:39:19;;;;;;;5.50;5.00;;;;;;;;;;5059486;28;20284;-66
2022/07/23 05:41:47;;;;;;;4.95;4.65;;;;;;;;;;5068381;28;20217;-65
2022/07/23 05:44:14;;;;;;;4.72;4.32;;;;;;;;;;5061627;28;20203;-66
2022/07/23 05:46:41;;;;;;;5.47;4.78;;;;;;;;;;5068541;28;20206;-66
2022/07/23 05:49:08;;;;;;;5.43;4.93;;;;;;;;;;5068960;28;21013;-66
2022/07/23 05:51:35;;;;;;;5.10;4.80;;;;;;;;;;5070336;28;20202;-66
2022/07/23 05:54:02;;;;;;;5.90;5.50;;;;;;;;;;5072801;28;20215;-66
2022/07/23 05:56:30;;;;;;;5.32;4.93;;;;;;;;;;5053809;28;20250;-67
2022/07/23 05:58:58;;;;;;;5.68;5.28;;;;;;;;;;5052658;28;20214;-66
2022/07/23 06:01:25;;;;;;;6.40;5.35;;;;;;;;;;5059824;28;20233;-66
2022/07/23 06:03:52;;;;;;;5.07;4.75;;;;;;;;;;5072331;28;20207;-66
2022/07/23 06:06:19;;;;;;;5.88;5.05;;;;;;;;;;5071655;28;20212;-66
2022/07/23 06:08:47;;;;;;;5.25;4.78;;;;;;;;;;5072251;28;20207;-67
2022/07/23 06:11:14;;;;;;;6.75;6.07;;;;;;;;;;5066404;28;20203;-66
2022/07/23 06:13:41;;;;;;;5.75;5.25;;;;;;;;;;5066966;28;20327;-67
2022/07/23 06:16:09;;;;;;;5.28;4.93;;;;;;;;;;5069472;28;20210;-67
2022/07/23 06:18:36;;;;;;;5.38;4.72;;;;;;;;;;5066650;28;20196;-67
2022/07/23 06:21:03;;;;;;;5.25;4.75;;;;;;;;;;5070587;28;20214;-66
2022/07/23 06:23:31;;;;;;;5.18;4.78;;;;;;;;;;5068049;28;20206;-67
2022/07/23 06:25:58;;;;;;;5.07;4.75;;;;;;;;;;5053227;28;20200;-66
2022/07/23 06:28:25;;;;;;;5.15;4.68;;;;;;;;;;5057504;28;20209;-69
2022/07/23 06:30:52;;;;;;;5.50;4.97;;;;;;;;;;5071903;28;20213;-67
2022/07/23 06:33:23;;;;;;;5.78;4.82;;;;;;;;;;5059214;28;20245;-66
2022/07/23 06:35:51;;;;;;;5.93;5.43;;;;;;;;;;5052252;28;20203;-67
2022/07/23 06:38:18;;;;;;;5.45;5.03;;;;;;;;;;5068897;28;20211;-66
2022/07/23 06:40:45;;;;;;;4.90;4.47;;;;;;;;;;5050252;28;20219;-66
2022/07/23 06:43:12;;;;;;;5.32;4.93;;;;;;;;;;5068043;28;20294;-67
2022/07/23 06:45:39;;;;;;;5.28;4.75;;;;;;;;;;5070356;28;20241;-66
2022/07/23 06:48:07;;;;;;;5.10;4.70;;;;;;;;;;5068114;28;20207;-66
2022/07/23 06:50:35;;;;;;;5.43;4.80;;;;;;;;;;5061610;28;20771;-69
2022/07/23 06:53:02;;;;;;;4.88;4.38;;;;;;;;;;5080861;28;20206;-64
2022/07/23 06:55:29;;;;;;;5.82;4.72;;;;;;;;;;5073000;28;20273;-66
2022/07/23 06:57:58;;;;;;;5.05;4.60;;;;;;;;;;5061581;28;20234;-68
2022/07/23 07:00:26;;;;;;;4.40;4.00;;;;;;;;;;5069965;28;20264;-67
2022/07/23 07:02:55;;;;;;;4.40;4.10;;;;;;;;;;5054801;28;20203;-67
2022/07/23 07:05:22;;;;;;;4.15;3.85;;;;;;;;;;5051363;28;20317;-68
2022/07/23 07:07:51;;;;;;;7.07;4.63;;;;;;;;;;5059931;28;20688;-67
2022/07/23 07:10:18;;;;;;;4.88;4.07;;;;;;;;;;5055300;28;20200;-68
2022/07/23 07:12:45;;;;;;;4.82;4.45;;;;;;;;;;5063463;28;20222;-68
2022/07/23 07:15:12;;;;;;;4.65;4.28;;;;;;;;;;5067757;28;20215;-68
2022/07/23 07:17:39;;;;;;;4.03;3.72;;;;;;;;;;5061241;28;20722;-68
2022/07/23 07:20:07;;;;;;;4.65;4.20;;;;;;;;;;5064523;28;20681;-68
2022/07/23 07:22:34;;;;;;;4.38;4.15;;;;;;;;;;5064477;28;20206;-68
2022/07/23 07:25:02;;;;;;;4.60;4.20;;;;;;;;;;5070342;28;20664;-68
2022/07/23 07:27:30;;;;;;;4.35;4.00;;;;;;;;;;5070227;28;20206;-67
2022/07/23 07:29:57;;;;;;;4.30;4.00;;;;;;;;;;5068988;28;20195;-68
2022/07/23 07:32:24;;;;;;;5.32;3.97;;;;;;;;;;5075303;28;20207;-68
2022/07/23 07:34:51;;;;;;;4.25;3.88;;;;;;;;;;5055447;28;20250;-67
2022/07/23 07:37:18;;;;;;;4.40;4.10;;;;;;;;;;5050659;28;20216;-70
2022/07/23 07:39:45;;;;;;;4.28;3.92;;;;;;;;;;5075637;28;20214;-66
2022/07/23 07:42:13;;;;;;;4.18;3.88;;;;;;;;;;5063332;28;20208;-66
2022/07/23 07:44:40;;;;;;;3.65;3.55;;;;;;;;;;5064504;28;20563;-67
2022/07/23 07:47:07;;;;;;;4.00;3.55;;;;;;;;;;5050099;28;20208;-67
2022/07/23 07:49:34;;;;;;;4.53;4.22;;;;;;;;;;5054352;28;20211;-67
2022/07/23 07:52:02;;;;;;;4.00;3.78;;;;;;;;;;5052475;28;20207;-67
2022/07/23 07:54:29;;;;;;;4.30;4.00;;;;;;;;;;5065789;28;20258;-68
2022/07/23 07:56:56;;;;;;;4.03;3.80;;;;;;;;;;5064973;28;20614;-66
2022/07/23 07:59:24;;;;;;;6.13;3.88;;;;;;;;;;5063687;28;20223;-66
2022/07/23 08:01:51;;;;;;;4.22;4.03;;;;;;;;;;5049378;28;20215;-67
2022/07/23 08:04:18;;;;;;;4.78;4.50;;;;;;;;;;5058999;28;20206;-67
2022/07/23 08:06:45;;;;;;;4.05;3.40;;;;;;;;;;5052401;28;20212;-67
2022/07/23 08:09:12;;;;;;;3.95;3.72;;;;;;;;;;5059721;28;20206;-67
2022/07/23 08:11:39;;;;;;;4.20;4.00;;;;;;;;;;5051636;28;20215;-66
2022/07/23 08:14:06;;;;;;;4.25;3.90;;;;;;;;;;5058372;28;20713;-69
2022/07/23 08:16:46;;;;;;;4.15;3.72;;;;;;;;;;5051711;28;20253;-66
2022/07/23 08:19:13;;;;;;;3.97;3.65;;;;;;;;;;5059946;28;20237;-66
2022/07/23 08:21:44;;;;;;;4.50;4.07;;;;;;;;;;5064616;28;20218;-66
2022/07/23 08:24:11;;;;;;;4.32;4.10;;;;;;;;;;5064229;28;20198;-66
2022/07/23 08:26:38;;;;;;;4.43;4.13;;;;;;;;;;5069331;28;20211;-65
2022/07/23 08:29:05;;;;;;;9.77;5.35;;;;;;;;;;5063843;28;20199;-64
2022/07/23 08:31:33;;;;;;;9.15;5.38;;;;;;;;;;5065690;28;20214;-64
2022/07/23 08:34:02;;;;;;;23.95;11.07;;;;;;;;;;5060366;28;20310;-65
2022/07/23 08:36:31;;;;;;;13.68;7.25;;;;;;;;;;5063890;28;20198;-66
2022/07/23 08:38:59;;;;;;;12.85;6.53;;;;;;;;;;5059127;28;20207;-66
2022/07/23 08:41:26;;;;;;;5.55;5.05;;;;;;;;;;5059127;28;20208;-66
2022/07/23 08:43:53;;;;;;;4.47;4.20;;;;;;;;;;5064044;28;20245;-65
2022/07/23 08:46:20;;;;;;;4.07;3.78;;;;;;;;;;5060498;28;20204;-66
2022/07/23 08:48:49;;;;;;;4.95;4.45;;;;;;;;;;5052941;28;20207;-66
2022/07/23 08:51:18;;;;;;;4.88;4.57;;;;;;;;;;5053104;28;20199;-66
2022/07/23 08:53:46;;;;;;;4.57;4.28;;;;;;;;;;5050400;28;20258;-65
2022/07/23 08:56:13;;;;;;;4.82;4.40;;;;;;;;;;5066143;28;20222;-66
2022/07/23 08:58:40;;;;;;;4.47;4.10;;;;;;;;;;5060875;28;20222;-65
2022/07/23 09:01:07;;;;;;;4.45;4.15;;;;;;;;;;5067976;28;20552;-66
2022/07/23 09:03:35;;;;;;;4.75;4.35;;;;;;;;;;5068183;28;20673;-65
2022/07/23 09:06:02;;;;;;;5.40;5.00;;;;;;;;;;5060340;28;20205;-65
2022/07/23 09:08:37;;;;;;;4.57;4.28;;;;;;;;;;5065437;28;20207;-65
2022/07/23 09:11:05;;;;;;;5.18;4.78;;;;;;;;;;5049983;28;20218;-65
2022/07/23 09:13:34;;;;;;;4.50;4.20;;;;;;;;;;5066312;28;20211;-65
2022/07/23 09:16:02;;;;;;;6.25;5.35;;;;;;;;;;5066959;28;20642;-65
2022/07/23 09:18:33;;;;;;;4.88;4.35;;;;;;;;;;5067798;28;20210;-65
2022/07/23 09:21:07;;;;;;;4.85;4.60;;;;;;;;;;5055564;28;20211;-65
2022/07/23 09:23:40;;;;;;;5.10;4.80;;;;;;;;;;5048860;28;20280;-65
2022/07/23 09:26:18;;;;;;;6.07;4.72;;;;;;;;;;5068794;28;20782;-66
2022/07/23 09:28:52;;;;;;;5.05;4.40;;;;;;;;;;5069613;28;20221;-66
2022/07/23 09:31:19;;;;;;;4.57;4.30;;;;;;;;;;5053260;28;20268;-66
2022/07/23 09:33:46;;;;;;;5.13;4.82;;;;;;;;;;5071278;28;20207;-70
2022/07/23 09:36:14;;;;;;;5.00;4.53;;;;;;;;;;5069377;28;20231;-67
2022/07/23 09:38:50;;;;;;;5.30;4.78;;;;;;;;;;5061598;28;20294;-67
2022/07/23 09:41:17;;;;;;;4.40;4.10;;;;;;;;;;5066238;28;20210;-67
2022/07/23 09:43:45;;;;;;;5.30;5.00;;;;;;;;;;5057308;28;20215;-68
2022/07/23 09:46:18;;;;;;;7.75;4.85;;;;;;;;;;5068247;28;20199;-68
2022/07/23 09:48:45;;;;;;;5.80;4.75;;;;;;;;;;5055751;28;20211;-68
2022/07/23 09:51:13;;;;;;;5.15;4.75;;;;;;;;;;5060495;28;20214;-67
2022/07/23 09:53:40;;;;;;;4.72;4.47;;;;;;;;;;5063819;28;20241;-67
2022/07/23 09:56:09;;;;;;;5.22;4.78;;;;;;;;;;5061851;28;20228;-67
2022/07/23 09:58:43;;;;;;;5.35;4.85;;;;;;;;;;5054198;28;20286;-67
2022/07/23 10:01:10;;;;;;;5.25;4.95;;;;;;;;;;5070864;28;20238;-68
2022/07/23 10:03:37;;;;;;;4.95;4.65;;;;;;;;;;5070787;28;20210;-67
2022/07/23 10:06:04;;;;;;;4.88;4.68;;;;;;;;;;5070626;28;20203;-67
2022/07/23 10:08:33;;;;;;;5.32;4.85;;;;;;;;;;5054981;28;20273;-67
2022/07/23 10:11:01;;;;;;;7.38;4.78;;;;;;;;;;5070305;28;20627;-67
2022/07/23 10:16:14;;;;;;;6.18;5.10;;;;;;;;;;5068522;28;20257;-67
2022/07/23 10:18:41;;;;;;;5.30;4.90;;;;;;;;;;5061096;28;20203;-67
2022/07/23 10:21:09;;;;;;;5.07;4.68;;;;;;;;;;5070157;28;20207;-67
2022/07/23 10:23:40;;;;;;;5.55;4.93;;;;;;;;;;5064310;28;20195;-66
2022/07/23 10:26:11;;;;;;;4.80;4.53;;;;;;;;;;5055914;28;20196;-67
2022/07/23 10:28:52;;;;;;;4.90;4.50;;;;;;;;;;5069914;28;20245;-67
2022/07/23 10:31:28;;;;;;;4.30;4.10;;;;;;;;;;5070023;28;20211;-67
2022/07/23 10:33:58;;;;;;;4.43;4.22;;;;;;;;;;5064623;28;20250;-67
2022/07/23 10:36:29;;;;;;;4.35;4.15;;;;;;;;;;5052322;28;20716;-67
2022/07/23 10:38:58;;;;;;;4.15;3.95;;;;;;;;;;5064591;28;20308;-66
2022/07/23 10:41:35;;;;;;;5.68;3.97;;;;;;;;;;5070505;28;20276;-67
2022/07/23 10:44:08;;;;;;;4.40;4.10;;;;;;;;;;5060212;28;20203;-68
2022/07/23 10:46:40;;;;;;;4.00;3.80;;;;;;;;;;5057561;28;20237;-61
2022/07/23 10:49:22;;;;;;;4.00;3.80;;;;;;;;;;5058419;28;20535;-65
2022/07/23 10:52:04;;;;;;;4.10;4.00;;;;;;;;;;5069921;28;20211;-65
2022/07/23 10:54:31;;;;;;;4.68;4.38;;;;;;;;;;5069007;28;20230;-64
2022/07/23 10:57:08;;;;;;;4.28;3.97;;;;;;;;;;5069903;28;20652;-65
2022/07/23 10:59:54;;;;;;;3.80;3.50;;;;;;;;;;5052297;28;20211;-63
2022/07/23 11:02:25;;;;;;;4.32;4.10;;;;;;;;;;5054605;28;20203;-65
2022/07/23 11:04:53;;;;;;;3.75;3.55;;;;;;;;;;5064874;28;20197;-61
2022/07/23 11:07:21;;;;;;;4.05;3.83;;;;;;;;;;5068143;28;20207;-61
2022/07/23 11:09:48;;;;;;;4.68;4.43;;;;;;;;;;5062535;28;20203;-62
2022/07/23 11:12:34;;;;;;;4.53;4.18;;;;;;;;;;5056991;28;20215;-63
2022/07/23 11:15:02;;;;;;;4.38;4.07;;;;;;;;;;5066939;28;20333;-61
2022/07/23 11:17:31;;;;;;;4.43;4.05;;;;;;;;;;5069737;28;20256;-65
2022/07/23 11:20:16;;;;;;;4.30;4.00;;;;;;;;;;5063487;28;20204;-61
2022/07/23 11:22:48;;;;;;;4.18;3.90;;;;;;;;;;5067241;28;20225;-62
2022/07/23 11:25:30;;;;;;;4.25;4.05;;;;;;;;;;5059248;28;20203;-67
2022/07/23 11:28:08;;;;;;;4.60;4.30;;;;;;;;;;5055261;28;20302;-66
2022/07/23 11:30:39;;;;;;;4.70;3.83;;;;;;;;;;5068272;28;20199;-67
2022/07/23 11:33:21;;;;;;;4.32;4.00;;;;;;;;;;5056120;28;20290;-66
2022/07/23 11:35:49;;;;;;;4.53;4.28;;;;;;;;;;5058012;28;20226;-67
2022/07/23 11:38:17;;;;;;;3.90;3.80;;;;;;;;;;5059273;28;20229;-67
2022/07/23 11:40:45;;;;;;;4.18;3.97;;;;;;;;;;5068455;28;20268;-67
2022/07/23 11:43:13;;;;;;;4.40;4.20;;;;;;;;;;5066895;28;20215;-67
2022/07/23 11:45:41;;;;;;;4.57;4.28;;;;;;;;;;5057100;28;20203;-67
2022/07/23 11:48:09;;;;;;;4.28;4.07;;;;;;;;;;5056701;28;20215;-67
2022/07/23 11:50:38;;;;;;;4.45;4.18;;;;;;;;;;5058808;28;20950;-67
2022/07/23 11:53:05;;;;;;;4.68;4.32;;;;;;;;;;5054538;28;20210;-66
2022/07/23 11:55:32;;;;;;;5.10;4.80;;;;;;;;;;5066062;28;20231;-67
2022/07/23 11:57:59;;;;;;;4.68;4.38;;;;;;;;;;5069387;28;20198;-66
2022/07/23 12:00:27;;;;;;;5.10;4.70;;;;;;;;;;5064310;28;20234;-67
2022/07/23 12:02:55;;;;;;;6.38;4.30;;;;;;;;;;5056465;28;20207;-66
2022/07/23 12:05:23;;;;;;;4.60;4.22;;;;;;;;;;5065905;28;20233;-67
2022/07/23 12:07:52;;;;;;;4.30;4.07;;;;;;;;;;5063037;28;20336;-66
2022/07/23 12:10:20;;;;;;;5.32;4.90;;;;;;;;;;5050543;28;20207;-67
2022/07/23 12:12:49;;;;;;;4.63;4.32;;;;;;;;;;5051268;28;20614;-67
2022/07/23 12:15:16;;;;;;;4.43;4.13;;;;;;;;;;5057528;28;20781;-65
2022/07/23 12:17:44;;;;;;;5.55;5.05;;;;;;;;;;5067228;28;20207;-66
2022/07/23 12:20:14;;;;;;;4.88;4.25;;;;;;;;;;5062769;28;20200;-67
2022/07/23 12:22:42;;;;;;;5.30;4.80;;;;;;;;;;5050674;28;20204;-68
2022/07/23 12:25:11;;;;;;;6.07;4.63;;;;;;;;;;5061638;28;20511;-66
2022/07/23 12:27:38;;;;;;;4.65;4.45;;;;;;;;;;5069926;28;20213;-65
2022/07/23 12:30:22;;;;;;;4.88;4.47;;;;;;;;;;5057728;28;20200;-66
2022/07/23 12:32:50;;;;;;;4.80;4.40;;;;;;;;;;5062620;28;20232;-65
2022/07/23 12:35:17;;;;;;;4.68;4.47;;;;;;;;;;5068731;28;20234;-66
2022/07/23 12:37:45;;;;;;;5.30;4.82;;;;;;;;;;5066293;28;20211;-65
2022/07/23 12:40:27;;;;;;;4.85;4.45;;;;;;;;;;5057350;28;20212;-66
2022/07/23 12:42:55;;;;;;;4.43;4.10;;;;;;;;;;5063225;28;20202;-66
2022/07/23 12:45:22;;;;;;;4.50;4.10;;;;;;;;;;5068170;28;20252;-66
2022/07/23 12:47:59;;;;;;;4.75;4.30;;;;;;;;;;5063646;28;20286;-66
2022/07/23 12:50:47;;;;;;;4.60;4.30;;;;;;;;;;5058330;28;20215;-66
2022/07/23 12:53:16;;;;;;;5.18;4.88;;;;;;;;;;5049011;28;20214;-67
2022/07/23 12:55:45;;;;;;;4.78;4.53;;;;;;;;;;5059920;28;20231;-66
2022/07/23 12:58:13;;;;;;;6.95;4.57;;;;;;;;;;5055371;28;20626;-65
2022/07/23 13:01:00;;;;;;;4.20;4.00;;;;;;;;;;5061739;28;20202;-67
2022/07/23 13:03:29;;;;;;;5.65;4.13;;;;;;;;;;5049980;28;20249;-67
2022/07/23 13:05:56;;;;;;;4.65;4.35;;;;;;;;;;5065959;28;20572;-67
2022/07/23 13:08:23;;;;;;;4.65;4.47;;;;;;;;;;5048416;28;20203;-66
2022/07/23 13:10:52;;;;;;;4.13;3.92;;;;;;;;;;5058758;28;20207;-66
2022/07/23 13:13:21;;;;;;;4.38;4.07;;;;;;;;;;5060044;28;20631;-66
2022/07/23 13:15:48;;;;;;;4.35;4.05;;;;;;;;;;5056338;28;20239;-67
2022/07/23 13:18:16;;;;;;;4.13;3.92;;;;;;;;;;5056010;28;20210;-67
2022/07/23 13:20:43;;;;;;;4.47;4.32;;;;;;;;;;5055718;28;20257;-67
2022/07/23 13:23:10;;;;;;;5.07;4.75;;;;;;;;;;5060837;28;20207;-68
2022/07/23 13:25:37;;;;;;;4.10;4.00;;;;;;;;;;5068438;28;20207;-68
2022/07/23 13:28:06;;;;;;;4.63;4.35;;;;;;;;;;5065619;28;20215;-68
2022/07/23 13:30:33;;;;;;;4.00;3.80;;;;;;;;;;5063048;28;20343;-68
2022/07/23 13:33:00;;;;;;;4.90;4.28;;;;;;;;;;5068201;28;20226;-68
2022/07/23 13:35:27;;;;;;;4.18;3.90;;;;;;;;;;5053154;28;20556;-68
2022/07/23 13:37:54;;;;;;;4.45;4.07;;;;;;;;;;5065219;28;20851;-68
2022/07/23 13:40:21;;;;;;;4.85;4.00;;;;;;;;;;5057023;28;20203;-68
2022/07/23 13:42:48;;;;;;;4.35;4.05;;;;;;;;;;5064993;28;20265;-68
2022/07/23 13:45:18;;;;;;;4.45;4.25;;;;;;;;;;5070416;28;20259;-67
2022/07/23 13:47:45;;;;;;;4.50;4.10;;;;;;;;;;5057490;28;20203;-69
2022/07/23 13:50:12;;;;;;;4.38;4.15;;;;;;;;;;5059775;28;20195;-69
2022/07/23 13:52:39;;;;;;;4.45;4.15;;;;;;;;;;5066949;28;20359;-70
2022/07/23 13:55:07;;;;;;;4.38;4.18;;;;;;;;;;5064094;28;20229;-69
2022/07/23 13:57:34;;;;;;;5.60;4.13;;;;;;;;;;5054255;28;20236;-70
2022/07/23 14:00:03;;;;;;;4.30;4.20;;;;;;;;;;5065318;28;20207;-69
2022/07/23 14:02:31;;;;;;;4.50;4.10;;;;;;;;;;5055320;28;20247;-68
2022/07/23 14:04:58;;;;;;;4.10;4.00;;;;;;;;;;5064696;28;20694;-69
2022/07/23 14:07:25;;;;;;;4.70;4.30;;;;;;;;;;5056744;28;20204;-68
2022/07/23 14:09:53;;;;;;;4.15;3.88;;;;;;;;;;5059972;28;20207;-70
2022/07/23 14:12:20;;;;;;;4.57;4.30;;;;;;;;;;5064615;28;20643;-67
2022/07/23 14:14:47;;;;;;;4.63;4.43;;;;;;;;;;5070292;28;20218;-68
2022/07/23 14:17:14;;;;;;;4.57;4.38;;;;;;;;;;5070821;28;20232;-68
2022/07/23 14:19:42;;;;;;;4.43;4.13;;;;;;;;;;5061872;28;20208;-65
2022/07/23 14:22:09;;;;;;;4.65;4.35;;;;;;;;;;5066869;28;20260;-67
2022/07/23 14:24:37;;;;;;;4.68;4.32;;;;;;;;;;5065034;28;20199;-65
2022/07/23 14:27:04;;;;;;;4.05;3.85;;;;;;;;;;5060857;28;20199;-67
2022/07/23 14:29:31;;;;;;;4.60;4.38;;;;;;;;;;5051979;28;20211;-67
2022/07/23 14:31:59;;;;;;;5.50;5.10;;;;;;;;;;5058296;28;20214;-66
2022/07/23 14:34:26;;;;;;;4.45;4.32;;;;;;;;;;5051555;28;20264;-66
2022/07/23 14:36:54;;;;;;;4.60;4.35;;;;;;;;;;5069329;28;20230;-67
2022/07/23 14:39:21;;;;;;;4.85;4.57;;;;;;;;;;5067190;28;20207;-69
2022/07/23 14:41:48;;;;;;;4.82;4.53;;;;;;;;;;5064504;28;20212;-61
2022/07/23 14:44:15;;;;;;;4.97;4.68;;;;;;;;;;5051244;28;20269;-63
2022/07/23 14:46:42;;;;;;;4.90;4.60;;;;;;;;;;5063974;28;20202;-65
2022/07/23 14:49:09;;;;;;;5.07;4.68;;;;;;;;;;5070188;28;20206;-64
2022/07/23 14:51:37;;;;;;;4.80;4.57;;;;;;;;;;5069206;28;20206;-64